sensor_id;sensor_type;location;lat;lon;timestamp;temperature;humidity
26270;DHT22;15937;50.612;6.656;2023-04-12T00:01:32;9.10;99.90
26270;DHT22;15937;50.612;6.656;2023-04-12T00:05:34;9.00;99.90
26270;DHT22;15937;50.612;6.656;2023-04-12T00:09:36;9.00;99.90
26270;DHT22;15937;50.612;6.656;2023-04-12T00:13:39;9.00;99.90
26270;DHT22;15937;50.612;6.656;2023-04-12T00:17:41;8.90;99.90
26270;DHT22;15937;50.612;6.656;2023-04-12T00:21:44;8.80;99.90
26270;DHT22;15937;50.612;6.656;2023-04-12T00:25:46;8.70;99.90
26270;DHT22;15937;50.612;6.656;2023-04-12T00:29:48;8.60;99.90
26270;DHT22;15937;50.612;6.656;2023-04-12T00:33:50;8.60;99.90
26270;DHT22;15937;50.612;6.656;2023-04-12T00:37:52;8.60;99.90
26270;DHT22;15937;50.612;6.656;2023-04-12T00:41:53;8.50;99.90
26270;DHT22;15937;50.612;6.656;2023-04-12T00:45:57;8.40;99.90
26270;DHT22;15937;50.612;6.656;2023-04-12T00:50:00;8.30;99.90
26270;DHT22;15937;50.612;6.656;2023-04-12T00:54:02;8.30;99.90
26270;DHT22;15937;50.612;6.656;2023-04-12T00:58:04;8.30;99.90
26270;DHT22;15937;50.612;6.656;2023-04-12T01:02:06;8.20;99.90
26270;DHT22;15937;50.612;6.656;2023-04-12T01:15:16;8.20;99.90
26270;DHT22;15937;50.612;6.656;2023-04-12T01:19:57;8.20;99.90
26270;DHT22;15937;50.612;6.656;2023-04-12T01:24:00;8.20;99.90
26270;DHT22;15937;50.612;6.656;2023-04-12T01:28:06;8.20;99.90
26270;DHT22;15937;50.612;6.656;2023-04-12T01:32:09;8.20;99.90
26270;DHT22;15937;50.612;6.656;2023-04-12T01:36:20;8.20;99.90
26270;DHT22;15937;50.612;6.656;2023-04-12T01:40:31;8.10;99.90
26270;DHT22;15937;50.612;6.656;2023-04-12T01:44:49;8.20;99.90
26270;DHT22;15937;50.612;6.656;2023-04-12T01:49:14;8.10;99.90
26270;DHT22;15937;50.612;6.656;2023-04-12T01:53:22;8.20;99.90
26270;DHT22;15937;50.612;6.656;2023-04-12T01:57:47;8.10;99.90
26270;DHT22;15937;50.612;6.656;2023-04-12T02:01:50;8.10;99.90
26270;DHT22;15937;50.612;6.656;2023-04-12T02:05:53;8.10;99.90
26270;DHT22;15937;50.612;6.656;2023-04-12T02:09:55;8.20;99.90
26270;DHT22;15937;50.612;6.656;2023-04-12T02:13:57;8.10;99.90
26270;DHT22;15937;50.612;6.656;2023-04-12T02:17:59;8.20;99.90
26270;DHT22;15937;50.612;6.656;2023-04-12T02:22:04;8.20;99.90
26270;DHT22;15937;50.612;6.656;2023-04-12T02:26:08;8.10;99.90
26270;DHT22;15937;50.612;6.656;2023-04-12T02:30:12;8.10;99.90
26270;DHT22;15937;50.612;6.656;2023-04-12T02:34:14;8.10;99.90
26270;DHT22;15937;50.612;6.656;2023-04-12T02:38:18;8.10;99.90
26270;DHT22;15937;50.612;6.656;2023-04-12T02:42:20;8.10;99.90
26270;DHT22;15937;50.612;6.656;2023-04-12T02:46:23;8.10;99.90
26270;DHT22;15937;50.612;6.656;2023-04-12T02:55:21;8.10;99.90
26270;DHT22;15937;50.612;6.656;2023-04-12T02:59:23;8.00;99.90
26270;DHT22;15937;50.612;6.656;2023-04-12T03:03:26;8.00;99.90
26270;DHT22;15937;50.612;6.656;2023-04-12T03:07:32;8.10;99.90
26270;DHT22;15937;50.612;6.656;2023-04-12T03:11:34;8.10;99.90
26270;DHT22;15937;50.612;6.656;2023-04-12T03:15:36;8.00;99.90
26270;DHT22;15937;50.612;6.656;2023-04-12T03:19:38;8.00;99.90
26270;DHT22;15937;50.612;6.656;2023-04-12T03:23:40;8.00;99.90
26270;DHT22;15937;50.612;6.656;2023-04-12T03:27:41;8.00;99.90
26270;DHT22;15937;50.612;6.656;2023-04-12T03:31:44;8.00;99.90
26270;DHT22;15937;50.612;6.656;2023-04-12T03:35:46;8.00;99.90
26270;DHT22;15937;50.612;6.656;2023-04-12T03:39:47;8.10;99.90
26270;DHT22;15937;50.612;6.656;2023-04-12T03:43:49;8.10;99.90
26270;DHT22;15937;50.612;6.656;2023-04-12T03:47:51;8.10;99.90
26270;DHT22;15937;50.612;6.656;2023-04-12T03:51:53;8.10;99.90
26270;DHT22;15937;50.612;6.656;2023-04-12T03:55:55;8.10;99.90
26270;DHT22;15937;50.612;6.656;2023-04-12T03:59:59;8.20;99.90
26270;DHT22;15937;50.612;6.656;2023-04-12T04:04:15;8.20;99.90
26270;DHT22;15937;50.612;6.656;2023-04-12T04:08:18;8.20;99.90
26270;DHT22;15937;50.612;6.656;2023-04-12T04:12:20;8.20;99.90
26270;DHT22;15937;50.612;6.656;2023-04-12T04:16:22;8.20;99.90
26270;DHT22;15937;50.612;6.656;2023-04-12T04:20:24;8.20;99.90
26270;DHT22;15937;50.612;6.656;2023-04-12T04:24:28;8.20;99.90
26270;DHT22;15937;50.612;6.656;2023-04-12T04:28:30;8.20;99.90
26270;DHT22;15937;50.612;6.656;2023-04-12T04:32:35;8.20;99.90
26270;DHT22;15937;50.612;6.656;2023-04-12T04:36:43;8.20;99.90
26270;DHT22;15937;50.612;6.656;2023-04-12T04:40:48;8.20;99.90
26270;DHT22;15937;50.612;6.656;2023-04-12T04:44:51;8.20;99.90
26270;DHT22;15937;50.612;6.656;2023-04-12T04:49:00;8.20;99.90
26270;DHT22;15937;50.612;6.656;2023-04-12T04:53:03;8.20;99.90
26270;DHT22;15937;50.612;6.656;2023-04-12T04:57:04;8.20;99.90
26270;DHT22;15937;50.612;6.656;2023-04-12T05:01:08;8.20;99.90
26270;DHT22;15937;50.612;6.656;2023-04-12T05:05:12;8.10;99.90
26270;DHT22;15937;50.612;6.656;2023-04-12T05:09:14;8.20;99.90
26270;DHT22;15937;50.612;6.656;2023-04-12T05:13:16;8.20;99.90
26270;DHT22;15937;50.612;6.656;2023-04-12T05:17:18;8.10;99.90
26270;DHT22;15937;50.612;6.656;2023-04-12T05:21:20;8.10;99.90
26270;DHT22;15937;50.612;6.656;2023-04-12T05:25:24;8.10;99.90
26270;DHT22;15937;50.612;6.656;2023-04-12T05:29:26;8.10;99.90
26270;DHT22;15937;50.612;6.656;2023-04-12T05:33:28;8.10;99.90
26270;DHT22;15937;50.612;6.656;2023-04-12T05:37:32;8.10;99.90
26270;DHT22;15937;50.612;6.656;2023-04-12T05:41:34;8.10;99.90
26270;DHT22;15937;50.612;6.656;2023-04-12T05:45:36;8.10;99.90
26270;DHT22;15937;50.612;6.656;2023-04-12T05:49:37;8.20;99.90
26270;DHT22;15937;50.612;6.656;2023-04-12T05:53:41;8.20;99.90
26270;DHT22;15937;50.612;6.656;2023-04-12T05:57:44;8.30;99.90
26270;DHT22;15937;50.612;6.656;2023-04-12T06:01:47;8.30;99.90
26270;DHT22;15937;50.612;6.656;2023-04-12T06:05:49;8.30;99.90
26270;DHT22;15937;50.612;6.656;2023-04-12T06:09:51;8.40;99.90
26270;DHT22;15937;50.612;6.656;2023-04-12T06:13:53;8.50;99.90
26270;DHT22;15937;50.612;6.656;2023-04-12T06:17:59;8.50;99.90
26270;DHT22;15937;50.612;6.656;2023-04-12T06:22:01;8.50;99.90
26270;DHT22;15937;50.612;6.656;2023-04-12T06:26:02;8.50;99.90
26270;DHT22;15937;50.612;6.656;2023-04-12T06:30:05;8.60;99.90
26270;DHT22;15937;50.612;6.656;2023-04-12T06:34:07;8.60;99.90
26270;DHT22;15937;50.612;6.656;2023-04-12T06:38:08;8.70;99.90
26270;DHT22;15937;50.612;6.656;2023-04-12T06:42:10;8.70;99.90
26270;DHT22;15937;50.612;6.656;2023-04-12T06:46:15;8.80;99.90
26270;DHT22;15937;50.612;6.656;2023-04-12T06:50:19;8.80;99.90
26270;DHT22;15937;50.612;6.656;2023-04-12T06:54:21;8.90;99.90
26270;DHT22;15937;50.612;6.656;2023-04-12T06:58:23;8.90;99.90
26270;DHT22;15937;50.612;6.656;2023-04-12T07:02:24;8.90;99.90
26270;DHT22;15937;50.612;6.656;2023-04-12T07:06:27;9.00;99.90
26270;DHT22;15937;50.612;6.656;2023-04-12T07:10:28;9.00;99.90
26270;DHT22;15937;50.612;6.656;2023-04-12T07:14:30;9.10;99.90
26270;DHT22;15937;50.612;6.656;2023-04-12T07:18:32;9.00;99.90
26270;DHT22;15937;50.612;6.656;2023-04-12T07:22:33;9.10;99.90
26270;DHT22;15937;50.612;6.656;2023-04-12T07:26:35;9.10;99.90
26270;DHT22;15937;50.612;6.656;2023-04-12T07:30:40;9.20;99.90
26270;DHT22;15937;50.612;6.656;2023-04-12T07:34:42;9.20;99.90
26270;DHT22;15937;50.612;6.656;2023-04-12T07:38:44;9.40;99.90
26270;DHT22;15937;50.612;6.656;2023-04-12T07:42:46;9.50;99.90
26270;DHT22;15937;50.612;6.656;2023-04-12T07:46:47;9.60;99.90
26270;DHT22;15937;50.612;6.656;2023-04-12T07:50:49;9.60;99.90
26270;DHT22;15937;50.612;6.656;2023-04-12T07:54:51;9.70;99.90
26270;DHT22;15937;50.612;6.656;2023-04-12T07:58:53;9.80;99.90
26270;DHT22;15937;50.612;6.656;2023-04-12T08:02:55;9.90;99.90
26270;DHT22;15937;50.612;6.656;2023-04-12T08:06:57;10.00;99.90
26270;DHT22;15937;50.612;6.656;2023-04-12T08:10:59;10.10;99.90
26270;DHT22;15937;50.612;6.656;2023-04-12T08:15:05;10.20;99.90
26270;DHT22;15937;50.612;6.656;2023-04-12T08:19:07;10.30;99.90
26270;DHT22;15937;50.612;6.656;2023-04-12T08:23:12;10.40;99.90
26270;DHT22;15937;50.612;6.656;2023-04-12T08:27:14;10.60;99.90
26270;DHT22;15937;50.612;6.656;2023-04-12T08:31:17;10.80;99.90
26270;DHT22;15937;50.612;6.656;2023-04-12T08:35:18;10.90;99.90
26270;DHT22;15937;50.612;6.656;2023-04-12T08:39:20;10.90;99.90
26270;DHT22;15937;50.612;6.656;2023-04-12T08:43:25;11.00;99.90
26270;DHT22;15937;50.612;6.656;2023-04-12T08:47:29;11.20;99.90
26270;DHT22;15937;50.612;6.656;2023-04-12T08:51:31;11.40;99.90
26270;DHT22;15937;50.612;6.656;2023-04-12T08:55:34;11.40;99.90
26270;DHT22;15937;50.612;6.656;2023-04-12T08:59:37;11.80;99.90
26270;DHT22;15937;50.612;6.656;2023-04-12T09:03:41;11.60;99.90
26270;DHT22;15937;50.612;6.656;2023-04-12T09:07:43;11.70;99.90
26270;DHT22;15937;50.612;6.656;2023-04-12T09:11:45;11.60;99.90
26270;DHT22;15937;50.612;6.656;2023-04-12T09:15:48;11.60;99.90
26270;DHT22;15937;50.612;6.656;2023-04-12T09:19:51;11.50;99.90
26270;DHT22;15937;50.612;6.656;2023-04-12T09:28:26;11.40;99.90
26270;DHT22;15937;50.612;6.656;2023-04-12T09:32:28;11.30;99.90
26270;DHT22;15937;50.612;6.656;2023-04-12T09:36:37;11.40;99.90
26270;DHT22;15937;50.612;6.656;2023-04-12T09:40:39;11.40;99.90
26270;DHT22;15937;50.612;6.656;2023-04-12T09:44:41;11.50;99.90
26270;DHT22;15937;50.612;6.656;2023-04-12T09:48:50;11.70;99.90
26270;DHT22;15937;50.612;6.656;2023-04-12T09:52:56;11.80;99.90
26270;DHT22;15937;50.612;6.656;2023-04-12T09:56:59;11.80;99.90
26270;DHT22;15937;50.612;6.656;2023-04-12T10:01:01;12.70;99.90
26270;DHT22;15937;50.612;6.656;2023-04-12T10:05:05;13.00;99.90
26270;DHT22;15937;50.612;6.656;2023-04-12T10:09:11;13.20;99.90
26270;DHT22;15937;50.612;6.656;2023-04-12T10:13:16;12.90;99.90
26270;DHT22;15937;50.612;6.656;2023-04-12T10:17:19;13.00;99.90
26270;DHT22;15937;50.612;6.656;2023-04-12T10:21:23;12.80;99.90
26270;DHT22;15937;50.612;6.656;2023-04-12T10:25:25;12.70;99.90
26270;DHT22;15937;50.612;6.656;2023-04-12T10:29:32;12.60;99.90
26270;DHT22;15937;50.612;6.656;2023-04-12T10:33:39;12.70;99.90
26270;DHT22;15937;50.612;6.656;2023-04-12T10:38:02;12.80;99.90
26270;DHT22;15937;50.612;6.656;2023-04-12T10:42:24;11.80;99.90
26270;DHT22;15937;50.612;6.656;2023-04-12T10:50:44;10.30;99.90
26270;DHT22;15937;50.612;6.656;2023-04-12T10:54:46;10.30;99.90
26270;DHT22;15937;50.612;6.656;2023-04-12T11:03:05;10.10;99.90
26270;DHT22;15937;50.612;6.656;2023-04-12T11:07:09;10.10;99.90
26270;DHT22;15937;50.612;6.656;2023-04-12T11:11:21;10.50;99.90
26270;DHT22;15937;50.612;6.656;2023-04-12T11:15:26;10.30;99.90
26270;DHT22;15937;50.612;6.656;2023-04-12T11:19:30;10.40;99.90
26270;DHT22;15937;50.612;6.656;2023-04-12T11:23:32;10.60;99.90
26270;DHT22;15937;50.612;6.656;2023-04-12T11:27:36;10.80;99.90
26270;DHT22;15937;50.612;6.656;2023-04-12T11:31:38;11.10;99.90
26270;DHT22;15937;50.612;6.656;2023-04-12T11:35:43;11.60;99.90
26270;DHT22;15937;50.612;6.656;2023-04-12T11:39:46;11.60;99.90
26270;DHT22;15937;50.612;6.656;2023-04-12T11:43:49;11.80;99.90
26270;DHT22;15937;50.612;6.656;2023-04-12T11:47:50;11.50;99.90
26270;DHT22;15937;50.612;6.656;2023-04-12T11:52:03;11.50;99.90
26270;DHT22;15937;50.612;6.656;2023-04-12T11:56:05;11.90;99.90
26270;DHT22;15937;50.612;6.656;2023-04-12T12:00:11;11.30;99.90
26270;DHT22;15937;50.612;6.656;2023-04-12T12:04:13;11.00;99.90
26270;DHT22;15937;50.612;6.656;2023-04-12T12:08:15;11.00;99.90
26270;DHT22;15937;50.612;6.656;2023-04-12T12:12:18;11.40;99.90
26270;DHT22;15937;50.612;6.656;2023-04-12T12:16:27;11.60;99.90
26270;DHT22;15937;50.612;6.656;2023-04-12T12:20:29;11.90;99.90
26270;DHT22;15937;50.612;6.656;2023-04-12T12:24:33;12.40;99.90
26270;DHT22;15937;50.612;6.656;2023-04-12T12:28:39;12.50;99.90
26270;DHT22;15937;50.612;6.656;2023-04-12T12:32:41;12.30;99.90
26270;DHT22;15937;50.612;6.656;2023-04-12T12:36:43;12.60;99.90
26270;DHT22;15937;50.612;6.656;2023-04-12T12:40:44;12.70;99.90
26270;DHT22;15937;50.612;6.656;2023-04-12T12:44:46;12.20;99.90
26270;DHT22;15937;50.612;6.656;2023-04-12T12:48:48;12.40;99.90
26270;DHT22;15937;50.612;6.656;2023-04-12T12:52:51;12.50;99.90
26270;DHT22;15937;50.612;6.656;2023-04-12T12:56:52;12.90;99.90
26270;DHT22;15937;50.612;6.656;2023-04-12T13:00:54;12.90;99.90
26270;DHT22;15937;50.612;6.656;2023-04-12T13:04:56;13.00;99.90
26270;DHT22;15937;50.612;6.656;2023-04-12T13:08:59;12.80;99.90
26270;DHT22;15937;50.612;6.656;2023-04-12T13:13:02;13.10;99.90
26270;DHT22;15937;50.612;6.656;2023-04-12T13:17:04;13.40;99.90
26270;DHT22;15937;50.612;6.656;2023-04-12T13:21:06;13.80;99.90
26270;DHT22;15937;50.612;6.656;2023-04-12T13:25:08;12.80;99.90
26270;DHT22;15937;50.612;6.656;2023-04-12T13:29:10;12.40;99.90
26270;DHT22;15937;50.612;6.656;2023-04-12T13:33:12;12.70;99.90
26270;DHT22;15937;50.612;6.656;2023-04-12T13:37:20;13.30;99.90
26270;DHT22;15937;50.612;6.656;2023-04-12T13:41:22;13.90;99.90
26270;DHT22;15937;50.612;6.656;2023-04-12T13:45:24;13.90;98.70
26270;DHT22;15937;50.612;6.656;2023-04-12T13:49:26;14.10;99.60
26270;DHT22;15937;50.612;6.656;2023-04-12T13:53:28;13.80;99.90
26270;DHT22;15937;50.612;6.656;2023-04-12T13:57:40;14.00;99.60
26270;DHT22;15937;50.612;6.656;2023-04-12T14:01:42;13.70;99.30
26270;DHT22;15937;50.612;6.656;2023-04-12T14:05:44;13.70;98.90
26270;DHT22;15937;50.612;6.656;2023-04-12T14:09:46;13.40;98.20
26270;DHT22;15937;50.612;6.656;2023-04-12T14:13:49;14.00;98.40
26270;DHT22;15937;50.612;6.656;2023-04-12T14:17:51;14.00;96.20
26270;DHT22;15937;50.612;6.656;2023-04-12T14:21:53;14.00;93.70
26270;DHT22;15937;50.612;6.656;2023-04-12T14:25:55;14.20;94.90
26270;DHT22;15937;50.612;6.656;2023-04-12T14:29:57;14.80;92.50
26270;DHT22;15937;50.612;6.656;2023-04-12T14:33:58;14.40;90.50
26270;DHT22;15937;50.612;6.656;2023-04-12T14:38:03;14.00;91.00
26270;DHT22;15937;50.612;6.656;2023-04-12T14:42:05;13.60;92.10
26270;DHT22;15937;50.612;6.656;2023-04-12T14:46:07;12.90;93.20
26270;DHT22;15937;50.612;6.656;2023-04-12T14:50:08;11.30;99.80
26270;DHT22;15937;50.612;6.656;2023-04-12T14:54:53;11.20;99.90
26270;DHT22;15937;50.612;6.656;2023-04-12T14:59:11;12.10;99.90
26270;DHT22;15937;50.612;6.656;2023-04-12T15:03:14;12.80;99.90
26270;DHT22;15937;50.612;6.656;2023-04-12T15:07:17;12.80;99.90
26270;DHT22;15937;50.612;6.656;2023-04-12T15:11:23;12.30;99.90
26270;DHT22;15937;50.612;6.656;2023-04-12T15:15:28;12.30;99.90
26270;DHT22;15937;50.612;6.656;2023-04-12T15:19:30;12.80;99.90
26270;DHT22;15937;50.612;6.656;2023-04-12T15:23:32;12.60;99.90
26270;DHT22;15937;50.612;6.656;2023-04-12T15:27:34;13.50;99.90
26270;DHT22;15937;50.612;6.656;2023-04-12T15:31:36;13.60;99.90
26270;DHT22;15937;50.612;6.656;2023-04-12T15:35:40;13.00;99.20
26270;DHT22;15937;50.612;6.656;2023-04-12T15:39:43;12.70;99.40
26270;DHT22;15937;50.612;6.656;2023-04-12T15:43:45;12.30;99.90
26270;DHT22;15937;50.612;6.656;2023-04-12T15:47:49;12.20;99.90
26270;DHT22;15937;50.612;6.656;2023-04-12T15:51:53;12.20;99.90
26270;DHT22;15937;50.612;6.656;2023-04-12T15:55:57;11.90;99.80
26270;DHT22;15937;50.612;6.656;2023-04-12T15:59:59;11.40;99.90
26270;DHT22;15937;50.612;6.656;2023-04-12T16:04:03;9.70;99.90
26270;DHT22;15937;50.612;6.656;2023-04-12T16:08:06;9.40;99.90
26270;DHT22;15937;50.612;6.656;2023-04-12T16:12:08;9.20;99.90
26270;DHT22;15937;50.612;6.656;2023-04-12T16:16:13;9.10;99.90
26270;DHT22;15937;50.612;6.656;2023-04-12T16:20:15;9.80;99.90
26270;DHT22;15937;50.612;6.656;2023-04-12T16:24:19;9.60;99.90
26270;DHT22;15937;50.612;6.656;2023-04-12T16:28:21;10.50;99.90
26270;DHT22;15937;50.612;6.656;2023-04-12T16:32:23;11.20;99.90
26270;DHT22;15937;50.612;6.656;2023-04-12T16:36:25;11.20;99.90
26270;DHT22;15937;50.612;6.656;2023-04-12T16:40:36;11.60;99.90
26270;DHT22;15937;50.612;6.656;2023-04-12T16:44:39;11.60;99.90
26270;DHT22;15937;50.612;6.656;2023-04-12T16:48:41;12.20;99.90
26270;DHT22;15937;50.612;6.656;2023-04-12T16:52:43;11.90;99.90
26270;DHT22;15937;50.612;6.656;2023-04-12T16:56:45;11.50;99.90
26270;DHT22;15937;50.612;6.656;2023-04-12T17:00:47;11.10;99.90
26270;DHT22;15937;50.612;6.656;2023-04-12T17:04:49;10.80;99.90
26270;DHT22;15937;50.612;6.656;2023-04-12T17:08:51;10.90;99.90
26270;DHT22;15937;50.612;6.656;2023-04-12T17:12:57;10.70;99.90
26270;DHT22;15937;50.612;6.656;2023-04-12T17:16:59;10.80;99.90
26270;DHT22;15937;50.612;6.656;2023-04-12T17:21:00;10.50;99.90
26270;DHT22;15937;50.612;6.656;2023-04-12T17:25:04;10.50;99.90
26270;DHT22;15937;50.612;6.656;2023-04-12T17:29:09;10.20;99.90
26270;DHT22;15937;50.612;6.656;2023-04-12T17:33:10;10.40;99.90
26270;DHT22;15937;50.612;6.656;2023-04-12T17:37:12;10.40;99.90
26270;DHT22;15937;50.612;6.656;2023-04-12T17:41:14;10.50;99.90
26270;DHT22;15937;50.612;6.656;2023-04-12T17:45:18;10.30;99.90
26270;DHT22;15937;50.612;6.656;2023-04-12T17:49:22;10.30;99.90
26270;DHT22;15937;50.612;6.656;2023-04-12T17:53:48;10.40;99.90
26270;DHT22;15937;50.612;6.656;2023-04-12T17:58:33;10.30;99.90
26270;DHT22;15937;50.612;6.656;2023-04-12T18:02:35;10.10;99.90
26270;DHT22;15937;50.612;6.656;2023-04-12T18:06:37;10.10;99.90
26270;DHT22;15937;50.612;6.656;2023-04-12T18:10:40;10.00;99.90
26270;DHT22;15937;50.612;6.656;2023-04-12T18:14:41;9.90;99.90
26270;DHT22;15937;50.612;6.656;2023-04-12T18:18:43;9.80;99.90
26270;DHT22;15937;50.612;6.656;2023-04-12T18:22:45;9.70;99.90
26270;DHT22;15937;50.612;6.656;2023-04-12T18:26:47;9.70;99.90
26270;DHT22;15937;50.612;6.656;2023-04-12T18:30:49;9.60;99.90
26270;DHT22;15937;50.612;6.656;2023-04-12T18:34:51;9.50;99.90
26270;DHT22;15937;50.612;6.656;2023-04-12T18:38:53;9.60;99.90
26270;DHT22;15937;50.612;6.656;2023-04-12T18:42:55;9.60;99.90
26270;DHT22;15937;50.612;6.656;2023-04-12T18:46:57;9.50;99.90
26270;DHT22;15937;50.612;6.656;2023-04-12T18:50:59;9.50;99.90
26270;DHT22;15937;50.612;6.656;2023-04-12T18:55:01;9.60;99.90
26270;DHT22;15937;50.612;6.656;2023-04-12T18:59:02;9.40;99.90
26270;DHT22;15937;50.612;6.656;2023-04-12T19:03:05;9.40;99.90
26270;DHT22;15937;50.612;6.656;2023-04-12T19:07:07;9.40;99.90
26270;DHT22;15937;50.612;6.656;2023-04-12T19:11:09;9.20;99.90
26270;DHT22;15937;50.612;6.656;2023-04-12T19:15:11;9.30;99.90
26270;DHT22;15937;50.612;6.656;2023-04-12T19:19:13;9.10;99.90
26270;DHT22;15937;50.612;6.656;2023-04-12T19:23:15;9.10;99.90
26270;DHT22;15937;50.612;6.656;2023-04-12T19:27:17;8.90;99.90
26270;DHT22;15937;50.612;6.656;2023-04-12T19:31:19;8.80;99.90
26270;DHT22;15937;50.612;6.656;2023-04-12T19:35:20;8.70;99.90
26270;DHT22;15937;50.612;6.656;2023-04-12T19:39:22;8.50;99.90
26270;DHT22;15937;50.612;6.656;2023-04-12T19:43:27;8.60;99.90
26270;DHT22;15937;50.612;6.656;2023-04-12T19:47:29;8.50;99.90
26270;DHT22;15937;50.612;6.656;2023-04-12T19:51:31;8.50;99.90
26270;DHT22;15937;50.612;6.656;2023-04-12T19:55:32;8.30;99.90
26270;DHT22;15937;50.612;6.656;2023-04-12T19:59:34;8.30;99.90
26270;DHT22;15937;50.612;6.656;2023-04-12T20:03:37;8.40;99.90
26270;DHT22;15937;50.612;6.656;2023-04-12T20:07:44;8.40;99.90
26270;DHT22;15937;50.612;6.656;2023-04-12T20:11:45;8.30;99.90
26270;DHT22;15937;50.612;6.656;2023-04-12T20:15:47;8.30;99.90
26270;DHT22;15937;50.612;6.656;2023-04-12T20:19:51;8.20;99.90
26270;DHT22;15937;50.612;6.656;2023-04-12T20:23:57;8.00;99.90
26270;DHT22;15937;50.612;6.656;2023-04-12T20:27:59;7.70;99.90
26270;DHT22;15937;50.612;6.656;2023-04-12T20:32:02;7.30;99.90
26270;DHT22;15937;50.612;6.656;2023-04-12T20:36:05;7.40;99.90
26270;DHT22;15937;50.612;6.656;2023-04-12T20:40:07;7.40;99.90
26270;DHT22;15937;50.612;6.656;2023-04-12T20:44:09;7.30;99.90
26270;DHT22;15937;50.612;6.656;2023-04-12T20:48:12;7.50;99.90
26270;DHT22;15937;50.612;6.656;2023-04-12T20:52:14;7.50;99.90
26270;DHT22;15937;50.612;6.656;2023-04-12T20:56:18;7.70;99.90
26270;DHT22;15937;50.612;6.656;2023-04-12T21:00:20;7.20;99.90
26270;DHT22;15937;50.612;6.656;2023-04-12T21:04:24;6.70;99.90
26270;DHT22;15937;50.612;6.656;2023-04-12T21:08:29;6.20;99.90
26270;DHT22;15937;50.612;6.656;2023-04-12T21:12:40;6.10;99.90
26270;DHT22;15937;50.612;6.656;2023-04-12T21:16:43;6.10;99.90
26270;DHT22;15937;50.612;6.656;2023-04-12T21:20:45;6.00;99.90
26270;DHT22;15937;50.612;6.656;2023-04-12T21:24:48;5.90;99.90
26270;DHT22;15937;50.612;6.656;2023-04-12T21:28:50;5.90;99.90
26270;DHT22;15937;50.612;6.656;2023-04-12T21:32:52;6.00;99.90
26270;DHT22;15937;50.612;6.656;2023-04-12T21:36:54;5.90;99.90
26270;DHT22;15937;50.612;6.656;2023-04-12T21:41:09;5.80;99.90
26270;DHT22;15937;50.612;6.656;2023-04-12T21:45:21;5.80;99.90
26270;DHT22;15937;50.612;6.656;2023-04-12T21:49:24;5.80;99.90
26270;DHT22;15937;50.612;6.656;2023-04-12T21:53:26;5.50;99.90
26270;DHT22;15937;50.612;6.656;2023-04-12T21:57:31;5.60;99.90
26270;DHT22;15937;50.612;6.656;2023-04-12T22:01:33;5.60;99.90
26270;DHT22;15937;50.612;6.656;2023-04-12T22:05:35;5.30;99.90
26270;DHT22;15937;50.612;6.656;2023-04-12T22:09:40;5.50;99.90
26270;DHT22;15937;50.612;6.656;2023-04-12T22:13:42;5.40;99.90
26270;DHT22;15937;50.612;6.656;2023-04-12T22:17:47;5.60;99.90
26270;DHT22;15937;50.612;6.656;2023-04-12T22:21:49;5.70;99.90
26270;DHT22;15937;50.612;6.656;2023-04-12T22:25:51;5.80;99.90
26270;DHT22;15937;50.612;6.656;2023-04-12T22:29:58;6.00;99.90
26270;DHT22;15937;50.612;6.656;2023-04-12T22:34:01;6.10;99.90
26270;DHT22;15937;50.612;6.656;2023-04-12T22:38:02;6.20;99.90
26270;DHT22;15937;50.612;6.656;2023-04-12T22:42:05;6.20;99.90
26270;DHT22;15937;50.612;6.656;2023-04-12T22:46:09;6.30;99.90
26270;DHT22;15937;50.612;6.656;2023-04-12T22:50:16;6.30;99.90
26270;DHT22;15937;50.612;6.656;2023-04-12T22:54:18;6.20;99.90
26270;DHT22;15937;50.612;6.656;2023-04-12T22:58:20;6.30;99.90
26270;DHT22;15937;50.612;6.656;2023-04-12T23:02:22;6.50;99.90
26270;DHT22;15937;50.612;6.656;2023-04-12T23:06:24;6.50;99.90
26270;DHT22;15937;50.612;6.656;2023-04-12T23:10:27;6.50;99.90
26270;DHT22;15937;50.612;6.656;2023-04-12T23:14:28;6.50;99.90
26270;DHT22;15937;50.612;6.656;2023-04-12T23:18:30;6.60;99.90
26270;DHT22;15937;50.612;6.656;2023-04-12T23:22:33;6.50;99.90
26270;DHT22;15937;50.612;6.656;2023-04-12T23:26:56;6.60;99.90
26270;DHT22;15937;50.612;6.656;2023-04-12T23:30:59;6.60;99.90
26270;DHT22;15937;50.612;6.656;2023-04-12T23:35:06;6.70;99.90
26270;DHT22;15937;50.612;6.656;2023-04-12T23:39:08;6.60;99.90
26270;DHT22;15937;50.612;6.656;2023-04-12T23:43:10;6.60;99.90
26270;DHT22;15937;50.612;6.656;2023-04-12T23:47:11;6.60;99.90
26270;DHT22;15937;50.612;6.656;2023-04-12T23:51:14;6.60;99.90
26270;DHT22;15937;50.612;6.656;2023-04-12T23:55:15;6.60;99.90
26270;DHT22;15937;50.612;6.656;2023-04-12T23:59:17;6.60;99.90
